createdAt,value
2019-06-26T00:00:51.941Z,7.30
2019-06-26T00:03:20.421Z,7.23
2019-06-26T00:05:48.880Z,7.50
2019-06-26T00:08:17.369Z,7.30
2019-06-26T00:10:46.015Z,7.17
2019-06-26T00:13:25.612Z,7.27
2019-06-26T00:15:44.718Z,7.90
2019-06-26T00:18:13.255Z,7.30
2019-06-26T00:20:41.753Z,7.63
2019-06-26T00:23:10.246Z,7.93
2019-06-26T00:25:38.739Z,7.87
2019-06-26T00:28:07.231Z,7.77
2019-06-26T00:30:35.705Z,7.83
2019-06-26T00:33:04.270Z,8.70
2019-06-26T00:35:32.754Z,7.73
2019-06-26T00:38:01.266Z,7.77
2019-06-26T00:40:29.743Z,8.00
2019-06-26T00:42:58.246Z,7.33
2019-06-26T00:45:26.687Z,8.30
2019-06-26T00:47:55.188Z,8.00
2019-06-26T00:50:23.667Z,8.10
2019-06-26T00:52:52.187Z,8.00
2019-06-26T00:55:20.692Z,8.00
2019-06-26T00:57:49.210Z,8.00
2019-06-26T01:00:18.031Z,7.57
2019-06-26T01:02:46.575Z,7.97
2019-06-26T01:05:15.256Z,7.67
2019-06-26T01:07:44.204Z,7.60
2019-06-26T01:10:13.528Z,8.67
2019-06-26T01:12:42.026Z,7.33
2019-06-26T01:15:11.222Z,8.30
2019-06-26T01:17:39.725Z,8.10
2019-06-26T01:20:08.853Z,8.13
2019-06-26T01:22:37.412Z,7.90
2019-06-26T01:25:06.837Z,7.90
2019-06-26T01:27:35.350Z,8.40
2019-06-26T01:30:05.907Z,8.73
2019-06-26T01:32:34.521Z,8.53
2019-06-26T01:35:03.543Z,8.43
2019-06-26T01:37:32.030Z,8.03
2019-06-26T01:40:00.525Z,8.90
2019-06-26T01:42:29.032Z,8.40
2019-06-26T01:44:57.505Z,8.23
2019-06-26T01:47:26.014Z,8.60
2019-06-26T01:49:54.476Z,8.93
2019-06-26T01:52:22.954Z,8.50
2019-06-26T01:54:51.457Z,8.83
2019-06-26T01:57:21.548Z,8.63
2019-06-26T01:59:51.758Z,8.60
2019-06-26T02:02:24.763Z,9.23
2019-06-26T02:04:57.421Z,9.53
2019-06-26T02:07:26.225Z,9.30
2019-06-26T02:09:58.842Z,8.10
2019-06-26T02:12:27.376Z,8.70
2019-06-26T02:15:01.459Z,8.47
2019-06-26T02:17:30.036Z,10.07
2019-06-26T02:20:00.420Z,9.60
2019-06-26T02:22:32.440Z,10.70
2019-06-26T02:25:02.740Z,9.90
2019-06-26T02:27:38.762Z,9.47
2019-06-26T02:30:09.997Z,9.87
2019-06-26T02:32:46.484Z,9.20
2019-06-26T02:35:21.364Z,9.23
2019-06-26T02:37:54.357Z,10.70
2019-06-26T02:40:25.952Z,9.60
2019-06-26T02:42:55.327Z,10.47
2019-06-26T02:45:25.576Z,9.63
2019-06-26T02:47:58.670Z,10.00
2019-06-26T02:50:27.182Z,10.03
2019-06-26T02:53:00.723Z,11.13
2019-06-26T02:55:31.240Z,11.13
2019-06-26T02:58:01.694Z,11.50
2019-06-26T03:00:32.094Z,11.00
2019-06-26T03:03:01.433Z,10.43
2019-06-26T03:05:29.949Z,10.47
2019-06-26T03:07:58.447Z,10.63
2019-06-26T03:10:26.958Z,11.57
2019-06-26T03:12:55.461Z,11.37
2019-06-26T03:15:23.973Z,10.50
2019-06-26T03:17:55.597Z,11.70
2019-06-26T03:20:25.777Z,11.70
2019-06-26T03:22:54.292Z,9.87
2019-06-26T03:25:22.783Z,10.93
2019-06-26T03:27:51.277Z,11.33
2019-06-26T03:30:20.156Z,11.87
2019-06-26T03:32:48.654Z,11.63
2019-06-26T03:35:17.331Z,11.77
2019-06-26T03:37:45.815Z,12.60
2019-06-26T03:40:14.969Z,11.47
2019-06-26T03:42:43.455Z,12.23
2019-06-26T03:45:25.242Z,12.30
2019-06-26T03:47:42.763Z,12.10
2019-06-26T03:50:12.309Z,13.13
2019-06-26T03:52:40.788Z,12.17
2019-06-26T03:55:09.738Z,10.80
2019-06-26T03:57:38.243Z,11.63
2019-06-26T04:00:10.345Z,13.33
2019-06-26T04:02:38.948Z,12.47
2019-06-26T04:05:08.307Z,12.37
2019-06-26T04:07:36.782Z,13.13
2019-06-26T04:10:07.381Z,12.03
2019-06-26T04:12:35.885Z,13.10
2019-06-26T04:15:06.932Z,14.87
2019-06-26T04:17:35.499Z,14.83
2019-06-26T04:20:07.263Z,13.23
2019-06-26T04:22:35.764Z,13.93
2019-06-26T04:25:06.816Z,13.80
2019-06-26T04:27:35.307Z,15.23
2019-06-26T04:30:05.640Z,13.73
2019-06-26T04:32:34.167Z,15.67
2019-06-26T04:35:02.676Z,15.10
2019-06-26T04:37:31.176Z,14.70
2019-06-26T04:39:59.681Z,13.50
2019-06-26T04:42:28.190Z,15.17
2019-06-26T04:44:56.700Z,14.30
2019-06-26T04:47:25.233Z,13.80
2019-06-26T04:49:53.690Z,15.67
2019-06-26T04:52:22.197Z,12.53
2019-06-26T04:54:50.676Z,13.43
2019-06-26T04:57:19.459Z,14.60
2019-06-26T04:59:47.944Z,14.63
2019-06-26T05:02:16.454Z,13.33
2019-06-26T05:04:45.067Z,15.93
2019-06-26T05:07:13.560Z,14.57
2019-06-26T05:09:42.047Z,14.40
2019-06-26T05:12:10.604Z,15.63
2019-06-26T05:14:39.075Z,14.83
2019-06-26T05:17:07.565Z,15.23
2019-06-26T05:19:36.077Z,15.03
2019-06-26T05:22:04.722Z,14.97
2019-06-26T05:24:33.270Z,15.40
2019-06-26T05:27:01.834Z,15.20
2019-06-26T05:29:30.354Z,16.03
2019-06-26T05:31:58.826Z,15.83
2019-06-26T05:34:27.334Z,15.10
2019-06-26T05:36:55.817Z,13.53
2019-06-26T05:39:24.324Z,14.50
2019-06-26T05:41:52.904Z,13.50
2019-06-26T05:44:21.476Z,14.53
2019-06-26T05:46:49.947Z,14.50
2019-06-26T05:49:18.454Z,14.40
2019-06-26T05:51:46.936Z,15.23
2019-06-26T05:54:15.481Z,14.30
2019-06-26T05:56:45.462Z,15.03
2019-06-26T05:59:14.216Z,14.47
2019-06-26T06:01:42.814Z,14.47
2019-06-26T06:04:11.318Z,14.67
2019-06-26T06:06:41.994Z,14.73
2019-06-26T06:09:10.044Z,14.40
2019-06-26T06:11:38.524Z,13.80
2019-06-26T06:14:07.057Z,12.83
2019-06-26T06:16:46.900Z,12.53
2019-06-26T06:19:05.923Z,12.83
2019-06-26T06:21:34.382Z,12.60
2019-06-26T06:24:03.174Z,11.90
2019-06-26T06:26:31.644Z,10.82
2019-06-26T06:29:00.198Z,11.88
2019-06-26T06:31:29.104Z,11.12
2019-06-26T06:33:57.623Z,10.82
2019-06-26T06:36:26.133Z,10.38
2019-06-26T06:38:54.713Z,10.32
2019-06-26T06:41:23.201Z,10.18
2019-06-26T06:43:51.700Z,9.30
2019-06-26T06:46:20.366Z,9.65
2019-06-26T06:48:48.940Z,9.63
2019-06-26T06:51:17.495Z,9.28
2019-06-26T06:53:46.154Z,9.33
2019-06-26T06:56:15.856Z,8.80
2019-06-26T06:58:44.346Z,9.43
2019-06-26T07:01:12.883Z,8.93
2019-06-26T07:03:41.408Z,8.95
2019-06-26T07:06:09.955Z,8.68
2019-06-26T07:08:38.578Z,8.85
2019-06-26T07:11:07.125Z,8.70
2019-06-26T07:13:35.662Z,8.80
2019-06-26T07:16:04.373Z,8.45
2019-06-26T07:18:32.897Z,8.70
2019-06-26T07:21:01.593Z,8.38
2019-06-26T07:23:30.322Z,7.97
2019-06-26T07:25:58.870Z,7.65
2019-06-26T07:28:27.395Z,7.17
2019-06-26T07:30:56.010Z,7.20
2019-06-26T07:33:24.507Z,7.28
2019-06-26T07:35:53.075Z,6.75
2019-06-26T07:38:21.693Z,6.00
2019-06-26T07:40:50.228Z,5.60
2019-06-26T07:43:18.805Z,4.90
2019-06-26T07:45:48.890Z,5.25
2019-06-26T07:48:17.442Z,5.47
2019-06-26T07:50:45.958Z,5.80
2019-06-26T07:53:14.507Z,5.70
2019-06-26T07:55:43.050Z,5.60
2019-06-26T07:58:11.630Z,6.33
2019-06-26T08:00:40.167Z,6.20
2019-06-26T08:03:08.719Z,7.12
2019-06-26T08:05:37.255Z,6.30
2019-06-26T08:08:05.790Z,5.37
2019-06-26T08:10:34.290Z,6.15
2019-06-26T08:13:02.886Z,5.90
2019-06-26T08:15:31.518Z,5.78
2019-06-26T08:18:01.526Z,5.80
2019-06-26T08:20:30.276Z,5.30
2019-06-26T08:22:58.791Z,5.05
2019-06-26T08:25:27.298Z,5.60
2019-06-26T08:27:55.817Z,5.55
2019-06-26T08:30:24.698Z,5.40
2019-06-26T08:32:53.229Z,5.60
2019-06-26T08:35:21.709Z,5.05
2019-06-26T08:37:50.222Z,5.22
2019-06-26T08:40:19.149Z,5.10
2019-06-26T08:42:47.640Z,4.72
2019-06-26T08:45:16.606Z,4.78
2019-06-26T08:47:45.205Z,5.00
2019-06-26T08:50:14.362Z,5.50
2019-06-26T08:52:42.893Z,4.80
2019-06-26T08:55:11.881Z,4.92
2019-06-26T08:57:40.441Z,4.60
2019-06-26T09:00:10.907Z,4.55
2019-06-26T09:02:39.443Z,4.37
2019-06-26T09:05:08.555Z,4.80
2019-06-26T09:07:37.102Z,4.53
2019-06-26T09:10:07.652Z,4.30
2019-06-26T09:12:36.173Z,4.42
2019-06-26T09:15:06.643Z,4.78
2019-06-26T09:17:36.714Z,4.30
2019-06-26T09:20:07.046Z,4.30
2019-06-26T09:22:35.801Z,4.50
2019-06-26T09:25:20.946Z,4.33
2019-06-26T09:27:36.692Z,4.40
2019-06-26T09:30:09.192Z,4.60
2019-06-26T09:32:37.726Z,4.67
2019-06-26T09:35:07.277Z,4.10
2019-06-26T09:37:35.765Z,4.50
2019-06-26T09:40:05.485Z,4.37
2019-06-26T09:42:34.015Z,4.58
2019-06-26T09:45:02.521Z,4.05
2019-06-26T09:47:31.285Z,4.60
2019-06-26T09:49:59.910Z,3.90
2019-06-26T09:52:28.440Z,4.40
2019-06-26T09:54:57.091Z,4.40
2019-06-26T09:57:25.650Z,4.30
2019-06-26T09:59:54.216Z,4.30
2019-06-26T10:02:22.772Z,4.42
2019-06-26T10:04:51.406Z,4.20
2019-06-26T10:07:19.883Z,4.40
2019-06-26T10:09:48.419Z,4.47
2019-06-26T10:12:16.964Z,4.75
2019-06-26T10:14:47.782Z,4.55
2019-06-26T10:17:15.636Z,4.35
2019-06-26T10:19:44.300Z,5.00
2019-06-26T10:22:12.758Z,4.53
2019-06-26T10:24:41.374Z,4.60
2019-06-26T10:27:09.938Z,4.65
2019-06-26T10:29:38.526Z,4.20
2019-06-26T10:32:07.156Z,4.70
2019-06-26T10:34:35.683Z,4.95
2019-06-26T10:37:04.488Z,4.40
2019-06-26T10:39:33.079Z,4.20
2019-06-26T10:42:01.604Z,4.35
2019-06-26T10:44:30.157Z,4.92
2019-06-26T10:46:58.796Z,4.90
2019-06-26T10:49:28.075Z,4.60
2019-06-26T10:51:56.824Z,4.95
2019-06-26T10:54:25.454Z,4.75
2019-06-26T10:56:55.499Z,5.05
2019-06-26T10:59:24.021Z,5.17
2019-06-26T11:01:52.605Z,4.85
2019-06-26T11:04:21.168Z,5.10
2019-06-26T11:06:49.883Z,5.30
2019-06-26T11:09:18.432Z,4.90
2019-06-26T11:11:46.905Z,5.65
2019-06-26T11:14:15.420Z,5.30
2019-06-26T11:16:44.056Z,5.00
2019-06-26T11:19:12.550Z,5.22
2019-06-26T11:21:41.076Z,4.83
2019-06-26T11:24:09.561Z,4.92
2019-06-26T11:26:38.078Z,5.30
2019-06-26T11:29:06.621Z,5.20
2019-06-26T11:31:35.130Z,5.00
2019-06-26T11:34:03.809Z,5.65
2019-06-26T11:36:32.325Z,5.42
2019-06-26T11:39:00.920Z,5.72
2019-06-26T11:41:29.419Z,6.10
2019-06-26T11:43:57.879Z,5.87
2019-06-26T11:46:26.468Z,5.60
2019-06-26T11:48:55.077Z,5.25
2019-06-26T11:51:23.683Z,5.60
2019-06-26T11:53:52.266Z,5.58
2019-06-26T11:56:20.881Z,5.97
2019-06-26T11:58:49.386Z,5.22
2019-06-26T12:01:18.051Z,5.40
2019-06-26T12:03:46.585Z,6.05
2019-06-26T12:06:18.965Z,5.78
2019-06-26T12:08:45.390Z,5.90
2019-06-26T12:11:16.693Z,5.33
2019-06-26T12:13:45.294Z,5.47
2019-06-26T12:16:13.812Z,5.78
2019-06-26T12:18:42.431Z,5.30
2019-06-26T12:21:10.931Z,5.75
2019-06-26T12:23:39.594Z,5.92
2019-06-26T12:26:08.106Z,5.75
2019-06-26T12:28:36.749Z,5.30
2019-06-26T12:31:05.322Z,5.20
2019-06-26T12:33:33.793Z,5.78
2019-06-26T12:36:02.293Z,5.70
2019-06-26T12:38:30.790Z,5.53
2019-06-26T12:40:59.298Z,5.72
2019-06-26T12:43:27.801Z,5.65
2019-06-26T12:45:56.312Z,6.50
2019-06-26T12:48:24.799Z,6.30
2019-06-26T12:50:53.366Z,5.90
2019-06-26T12:53:21.856Z,6.20
2019-06-26T12:55:50.449Z,6.37
2019-06-26T12:58:20.221Z,6.12
2019-06-26T13:00:48.981Z,5.25
2019-06-26T13:03:17.473Z,5.70
2019-06-26T13:05:46.018Z,6.55
2019-06-26T13:08:14.744Z,6.50
2019-06-26T13:10:49.684Z,5.78
2019-06-26T13:13:13.490Z,5.90
2019-06-26T13:15:42.040Z,6.60
2019-06-26T13:18:10.645Z,6.62
2019-06-26T13:20:52.219Z,6.90
2019-06-26T13:23:10.357Z,6.67
2019-06-26T13:25:38.907Z,6.60
2019-06-26T13:28:07.434Z,6.70
2019-06-26T13:30:39.152Z,6.58
2019-06-26T13:33:07.965Z,6.47
2019-06-26T13:35:36.519Z,6.53
2019-06-26T13:38:05.459Z,6.92
2019-06-26T13:40:34.049Z,7.67
2019-06-26T13:43:02.578Z,7.40
2019-06-26T13:45:31.056Z,7.60
2019-06-26T13:47:59.610Z,7.55
2019-06-26T13:50:28.273Z,6.90
2019-06-26T13:52:56.808Z,7.62
2019-06-26T13:55:25.436Z,7.12
2019-06-26T13:57:53.958Z,6.80
2019-06-26T14:00:22.847Z,7.12
2019-06-26T14:02:51.409Z,7.67
2019-06-26T14:05:20.094Z,7.57
2019-06-26T14:07:48.694Z,7.47
2019-06-26T14:10:18.051Z,7.20
2019-06-26T14:12:46.651Z,6.78
2019-06-26T14:15:16.845Z,7.20
2019-06-26T14:17:45.520Z,7.03
2019-06-26T14:20:14.198Z,6.80
2019-06-26T14:22:42.813Z,6.90
2019-06-26T14:25:11.967Z,7.00
2019-06-26T14:27:40.487Z,6.80
2019-06-26T14:30:09.699Z,6.80
2019-06-26T14:32:38.217Z,6.90
2019-06-26T14:35:08.640Z,7.05
2019-06-26T14:37:37.146Z,6.67
2019-06-26T14:40:09.205Z,7.10
2019-06-26T14:42:37.907Z,7.08
2019-06-26T14:45:10.356Z,6.53
2019-06-26T14:47:38.995Z,7.65
2019-06-26T14:50:08.597Z,6.75
2019-06-26T14:52:37.184Z,6.72
2019-06-26T14:55:09.724Z,6.53
2019-06-26T14:57:38.254Z,6.83
2019-06-26T15:00:08.581Z,7.10
2019-06-26T15:02:37.136Z,6.70
2019-06-26T15:05:07.461Z,7.20
2019-06-26T15:07:36.020Z,7.15
2019-06-26T15:10:06.570Z,6.83
2019-06-26T15:12:35.152Z,7.00
2019-06-26T15:15:04.208Z,6.70
2019-06-26T15:17:32.801Z,7.37
2019-06-26T15:20:01.354Z,6.58
2019-06-26T15:22:29.867Z,7.07
2019-06-26T15:24:58.380Z,7.43
2019-06-26T15:27:26.950Z,7.20
2019-06-26T15:29:55.444Z,7.20
2019-06-26T15:32:23.961Z,7.10
2019-06-26T15:34:52.477Z,7.40
2019-06-26T15:37:21.152Z,6.80
2019-06-26T15:39:49.762Z,7.27
2019-06-26T15:42:18.327Z,6.67
2019-06-26T15:44:46.883Z,6.13
2019-06-26T15:47:15.448Z,6.83
2019-06-26T15:49:44.764Z,6.73
2019-06-26T15:52:15.425Z,6.50
2019-06-26T15:54:43.592Z,6.30
2019-06-26T15:57:12.086Z,6.33
2019-06-26T15:59:40.608Z,6.87
2019-06-26T16:02:09.219Z,5.67
2019-06-26T16:04:37.769Z,6.60
2019-06-26T16:07:06.284Z,6.13
2019-06-26T16:09:36.476Z,5.70
2019-06-26T16:12:04.957Z,5.70
2019-06-26T16:14:33.514Z,5.97
2019-06-26T16:17:03.674Z,5.63
2019-06-26T16:19:32.827Z,6.03
2019-06-26T16:22:01.364Z,6.27
2019-06-26T16:24:30.317Z,5.50
2019-06-26T16:26:58.975Z,5.70
2019-06-26T16:29:27.482Z,5.73
2019-06-26T16:31:56.085Z,5.53
2019-06-26T16:34:24.702Z,6.07
2019-06-26T16:36:53.190Z,5.73
2019-06-26T16:39:23.474Z,5.30
2019-06-26T16:41:52.224Z,5.13
2019-06-26T16:44:22.182Z,5.33
2019-06-26T16:46:51.021Z,5.77
2019-06-26T16:49:19.756Z,5.53
2019-06-26T16:51:48.301Z,4.97
2019-06-26T16:54:16.798Z,5.50
2019-06-26T16:56:45.425Z,5.53
2019-06-26T16:59:13.916Z,5.40
2019-06-26T17:01:42.511Z,5.37
2019-06-26T17:04:12.635Z,5.27
2019-06-26T17:06:41.135Z,5.87
2019-06-26T17:09:10.401Z,5.40
2019-06-26T17:11:38.937Z,5.53
2019-06-26T17:14:07.511Z,5.47
2019-06-26T17:16:36.356Z,5.20
2019-06-26T17:19:05.017Z,5.37
2019-06-26T17:21:33.567Z,5.03
2019-06-26T17:24:02.047Z,5.33
2019-06-26T17:26:30.667Z,5.40
2019-06-26T17:28:59.226Z,5.23
2019-06-26T17:31:30.396Z,5.33
2019-06-26T17:33:58.938Z,5.30
2019-06-26T17:36:28.928Z,5.47
2019-06-26T17:38:57.665Z,4.77
2019-06-26T17:41:26.203Z,4.60
2019-06-26T17:43:54.727Z,4.87
2019-06-26T17:46:23.274Z,4.40
2019-06-26T17:48:51.779Z,4.23
2019-06-26T17:51:20.297Z,4.20
2019-06-26T17:53:48.800Z,3.60
2019-06-26T17:56:17.318Z,3.57
2019-06-26T17:58:45.839Z,3.83
2019-06-26T18:01:14.442Z,3.30
2019-06-26T18:03:43.041Z,3.80
2019-06-26T18:06:11.516Z,3.80
2019-06-26T18:08:40.039Z,3.40
2019-06-26T18:11:08.606Z,3.17
2019-06-26T18:13:37.094Z,3.70
2019-06-26T18:16:05.623Z,3.67
2019-06-26T18:18:34.213Z,3.90
2019-06-26T18:21:02.800Z,4.27
2019-06-26T18:23:37.717Z,3.90
2019-06-26T18:26:12.505Z,3.70
2019-06-26T18:28:31.789Z,3.77
2019-06-26T18:31:00.294Z,3.63
2019-06-26T18:33:28.860Z,3.93
2019-06-26T18:35:57.414Z,3.90
2019-06-26T18:38:26.025Z,4.07
2019-06-26T18:40:54.516Z,3.80
2019-06-26T18:43:23.072Z,4.10
2019-06-26T18:45:51.651Z,4.00
2019-06-26T18:48:20.220Z,3.90
2019-06-26T18:50:48.717Z,3.87
2019-06-26T18:53:17.264Z,4.47
2019-06-26T18:55:45.829Z,3.83
2019-06-26T18:58:14.427Z,4.73
2019-06-26T19:00:42.918Z,3.70
2019-06-26T19:03:11.528Z,4.57
2019-06-26T19:05:40.022Z,3.80
2019-06-26T19:08:08.625Z,4.23
2019-06-26T19:10:38.688Z,4.13
2019-06-26T19:13:07.270Z,4.40
2019-06-26T19:15:35.806Z,4.23
2019-06-26T19:18:05.024Z,4.47
2019-06-26T19:20:33.973Z,4.00
2019-06-26T19:23:02.814Z,4.13
2019-06-26T19:25:31.368Z,4.40
2019-06-26T19:28:00.045Z,4.47
2019-06-26T19:30:28.541Z,4.33
2019-06-26T19:32:57.076Z,4.83
2019-06-26T19:35:25.579Z,4.90
2019-06-26T19:37:54.215Z,4.50
2019-06-26T19:40:24.167Z,4.60
2019-06-26T19:42:53.096Z,4.73
2019-06-26T19:45:21.951Z,4.60
2019-06-26T19:47:50.597Z,4.10
2019-06-26T19:50:23.199Z,4.13
2019-06-26T19:52:49.786Z,4.53
2019-06-26T19:55:18.707Z,4.70
2019-06-26T19:57:47.325Z,4.93
2019-06-26T20:00:16.297Z,4.60
2019-06-26T20:02:44.782Z,4.30
2019-06-26T20:05:16.010Z,4.50
2019-06-26T20:07:44.620Z,4.40
2019-06-26T20:10:13.714Z,4.20
2019-06-26T20:12:42.307Z,4.37
2019-06-26T20:15:11.257Z,4.30
2019-06-26T20:17:39.810Z,3.90
2019-06-26T20:20:10.147Z,3.60
2019-06-26T20:22:38.922Z,4.30
2019-06-26T20:25:08.670Z,4.03
2019-06-26T20:27:37.187Z,4.30
2019-06-26T20:30:10.215Z,3.77
2019-06-26T20:32:38.883Z,4.10
2019-06-26T20:35:08.064Z,3.73
2019-06-26T20:37:36.798Z,4.20
2019-06-26T20:40:26.296Z,4.90
2019-06-26T20:42:54.833Z,4.10
2019-06-26T20:45:23.390Z,4.10
2019-06-26T20:47:51.864Z,4.27
2019-06-26T20:50:20.430Z,4.63
2019-06-26T20:52:48.959Z,4.17
2019-06-26T20:55:17.484Z,4.07
2019-06-26T20:57:45.964Z,4.67
2019-06-26T21:00:15.147Z,4.00
2019-06-26T21:02:43.747Z,4.40
2019-06-26T21:05:15.427Z,4.20
2019-06-26T21:07:44.100Z,4.10
2019-06-26T21:10:12.705Z,4.33
2019-06-26T21:12:41.233Z,3.73
2019-06-26T21:15:09.903Z,3.93
2019-06-26T21:17:38.525Z,3.80
2019-06-26T21:20:08.305Z,4.10
2019-06-26T21:22:36.888Z,4.00
2019-06-26T21:25:18.805Z,4.40
2019-06-26T21:27:41.234Z,4.30
2019-06-26T21:30:10.482Z,3.90
2019-06-26T21:32:39.045Z,3.80
2019-06-26T21:35:07.586Z,3.97
2019-06-26T21:37:36.072Z,4.03
2019-06-26T21:40:04.939Z,3.80
2019-06-26T21:42:33.586Z,3.73
2019-06-26T21:45:02.316Z,4.10
2019-06-26T21:47:30.839Z,3.50
2019-06-26T21:49:59.339Z,4.07
2019-06-26T21:52:27.904Z,3.70
2019-06-26T21:54:56.524Z,3.83
2019-06-26T21:57:25.060Z,3.77
2019-06-26T21:59:53.596Z,3.70
2019-06-26T22:02:22.117Z,3.53
2019-06-26T22:04:50.703Z,4.00
2019-06-26T22:07:19.280Z,3.50
2019-06-26T22:09:47.960Z,3.70
2019-06-26T22:12:16.605Z,3.83
2019-06-26T22:14:45.174Z,3.90
2019-06-26T22:17:13.733Z,3.60
2019-06-26T22:19:42.219Z,3.30
2019-06-26T22:22:10.791Z,3.27
2019-06-26T22:24:39.377Z,3.30
2019-06-26T22:27:07.924Z,3.50
2019-06-26T22:29:36.451Z,3.63
2019-06-26T22:32:05.023Z,3.23
2019-06-26T22:34:33.584Z,3.33
2019-06-26T22:37:02.096Z,3.60
2019-06-26T22:39:30.624Z,3.63
2019-06-26T22:41:59.216Z,3.43
2019-06-26T22:44:27.744Z,3.60
2019-06-26T22:46:56.277Z,3.53
2019-06-26T22:49:24.846Z,3.47
2019-06-26T22:51:53.424Z,3.47
2019-06-26T22:54:22.083Z,3.60
2019-06-26T22:56:50.624Z,3.90
2019-06-26T22:59:19.144Z,3.57
2019-06-26T23:01:47.691Z,3.60
2019-06-26T23:04:16.195Z,3.80
2019-06-26T23:06:44.721Z,3.30
2019-06-26T23:09:13.188Z,3.60
2019-06-26T23:11:41.728Z,4.17
2019-06-26T23:14:10.273Z,3.97
2019-06-26T23:16:38.919Z,3.67
2019-06-26T23:19:07.463Z,4.20
2019-06-26T23:21:35.978Z,4.10
2019-06-26T23:24:04.547Z,4.47
2019-06-26T23:26:33.056Z,4.23
2019-06-26T23:29:01.593Z,4.57
2019-06-26T23:31:30.223Z,4.40
2019-06-26T23:33:58.746Z,4.63
2019-06-26T23:36:27.364Z,4.67
2019-06-26T23:38:55.929Z,4.07
2019-06-26T23:41:24.487Z,4.53
2019-06-26T23:43:53.070Z,4.53
2019-06-26T23:46:21.641Z,4.87
2019-06-26T23:48:50.202Z,4.73
2019-06-26T23:51:18.752Z,5.00
2019-06-26T23:53:47.333Z,4.73
2019-06-26T23:56:15.864Z,5.40
2019-06-26T23:58:44.352Z,5.07
